Anniston, Alabama
Current Conditions -  °F | °C
As of 12:53 AM on Sunday 21 Dec 2014 (Local Time) from KANB Reporting Station
Overcast Overcast  
Wind Chill: 46°   Ceiling: 1200
Heat Index: 46°   Visibility: 7mi
Dew Point: 42°   Wind: 3mph
Humidity: 86%   Direction: 40°NE
Pressure: 30.19"   Gusts: NA
Location:  33.66°N, 85.82°W
Report Text: KANB 210653Z AUTO 04003KT 7SM OVC012 08/06 A3019 RMK AO2 SLP229 T00780056
Loading
Personal Weather Stations






























Interactive Weather Map New forecast layout! Learn more

10-Day Weather Forecast

Advertisements
Track Severe Weather on mobile